sensor_id;sensor_type;location;lat;lon;timestamp;P1;durP1;ratioP1;P2;durP2;ratioP2
50681;SDS011;36779;52.168;20.878;2022-07-01T00:02:19;11.80;;;5.70;;
50681;SDS011;36779;52.168;20.878;2022-07-01T00:05:08;13.00;;;5.80;;
50681;SDS011;36779;52.168;20.878;2022-07-01T00:08:07;14.90;;;7.00;;
50681;SDS011;36779;52.168;20.878;2022-07-01T00:10:58;10.10;;;6.30;;
50681;SDS011;36779;52.168;20.878;2022-07-01T00:13:47;12.30;;;6.50;;
50681;SDS011;36779;52.168;20.878;2022-07-01T00:16:37;10.40;;;6.60;;
50681;SDS011;36779;52.168;20.878;2022-07-01T00:19:28;12.10;;;7.10;;
50681;SDS011;36779;52.168;20.878;2022-07-01T00:22:17;9.90;;;6.90;;
50681;SDS011;36779;52.168;20.878;2022-07-01T00:25:09;12.30;;;7.50;;
50681;SDS011;36779;52.168;20.878;2022-07-01T00:27:58;9.80;;;7.00;;
50681;SDS011;36779;52.168;20.878;2022-07-01T00:30:48;9.30;;;7.00;;
50681;SDS011;36779;52.168;20.878;2022-07-01T00:33:41;10.10;;;7.20;;
50681;SDS011;36779;52.168;20.878;2022-07-01T00:36:31;9.10;;;6.70;;
50681;SDS011;36779;52.168;20.878;2022-07-01T00:39:21;11.70;;;7.30;;
50681;SDS011;36779;52.168;20.878;2022-07-01T00:42:10;12.00;;;6.70;;
50681;SDS011;36779;52.168;20.878;2022-07-01T00:44:53;11.50;;;7.30;;
50681;SDS011;36779;52.168;20.878;2022-07-01T00:47:43;13.90;;;7.90;;
50681;SDS011;36779;52.168;20.878;2022-07-01T00:50:33;9.30;;;7.40;;
50681;SDS011;36779;52.168;20.878;2022-07-01T00:53:22;12.60;;;8.20;;
50681;SDS011;36779;52.168;20.878;2022-07-01T00:56:15;11.40;;;7.20;;
50681;SDS011;36779;52.168;20.878;2022-07-01T00:59:06;9.90;;;7.10;;
50681;SDS011;36779;52.168;20.878;2022-07-01T01:01:59;11.60;;;7.50;;
50681;SDS011;36779;52.168;20.878;2022-07-01T01:04:50;10.20;;;7.60;;
50681;SDS011;36779;52.168;20.878;2022-07-01T01:07:39;9.40;;;7.80;;
50681;SDS011;36779;52.168;20.878;2022-07-01T01:10:29;12.30;;;7.90;;
50681;SDS011;36779;52.168;20.878;2022-07-01T01:13:18;12.70;;;7.20;;
50681;SDS011;36779;52.168;20.878;2022-07-01T01:16:09;8.50;;;7.30;;
50681;SDS011;36779;52.168;20.878;2022-07-01T01:19:05;10.80;;;7.20;;
50681;SDS011;36779;52.168;20.878;2022-07-01T01:21:55;13.80;;;8.50;;
50681;SDS011;36779;52.168;20.878;2022-07-01T01:24:46;16.10;;;8.00;;
50681;SDS011;36779;52.168;20.878;2022-07-01T01:27:35;14.20;;;7.90;;
50681;SDS011;36779;52.168;20.878;2022-07-01T01:30:24;12.50;;;7.90;;
50681;SDS011;36779;52.168;20.878;2022-07-01T01:33:14;10.70;;;7.70;;
50681;SDS011;36779;52.168;20.878;2022-07-01T01:36:03;14.20;;;7.90;;
50681;SDS011;36779;52.168;20.878;2022-07-01T01:38:55;15.00;;;7.30;;
50681;SDS011;36779;52.168;20.878;2022-07-01T01:41:47;13.70;;;7.70;;
50681;SDS011;36779;52.168;20.878;2022-07-01T01:44:37;11.40;;;7.90;;
50681;SDS011;36779;52.168;20.878;2022-07-01T01:47:27;14.60;;;7.70;;
50681;SDS011;36779;52.168;20.878;2022-07-01T01:50:18;15.90;;;8.20;;
50681;SDS011;36779;52.168;20.878;2022-07-01T01:53:09;13.60;;;7.70;;
50681;SDS011;36779;52.168;20.878;2022-07-01T01:55:58;11.50;;;7.40;;
50681;SDS011;36779;52.168;20.878;2022-07-01T01:58:47;10.80;;;7.80;;
50681;SDS011;36779;52.168;20.878;2022-07-01T02:01:37;12.40;;;8.10;;
50681;SDS011;36779;52.168;20.878;2022-07-01T02:04:27;15.60;;;8.50;;
50681;SDS011;36779;52.168;20.878;2022-07-01T02:07:17;15.00;;;7.60;;
50681;SDS011;36779;52.168;20.878;2022-07-01T02:10:07;12.80;;;8.10;;
50681;SDS011;36779;52.168;20.878;2022-07-01T02:12:58;11.40;;;8.20;;
50681;SDS011;36779;52.168;20.878;2022-07-01T02:15:47;13.70;;;8.30;;
50681;SDS011;36779;52.168;20.878;2022-07-01T02:18:39;12.60;;;7.90;;
50681;SDS011;36779;52.168;20.878;2022-07-01T02:21:28;10.40;;;7.70;;
50681;SDS011;36779;52.168;20.878;2022-07-01T02:24:18;13.30;;;8.50;;
50681;SDS011;36779;52.168;20.878;2022-07-01T02:27:07;11.90;;;8.70;;
50681;SDS011;36779;52.168;20.878;2022-07-01T02:29:56;13.40;;;8.80;;
50681;SDS011;36779;52.168;20.878;2022-07-01T02:32:47;13.20;;;8.80;;
50681;SDS011;36779;52.168;20.878;2022-07-01T02:35:36;11.00;;;8.30;;
50681;SDS011;36779;52.168;20.878;2022-07-01T02:38:28;11.90;;;8.50;;
50681;SDS011;36779;52.168;20.878;2022-07-01T02:41:17;13.80;;;8.40;;
50681;SDS011;36779;52.168;20.878;2022-07-01T02:44:07;15.00;;;8.60;;
50681;SDS011;36779;52.168;20.878;2022-07-01T02:47:00;12.80;;;9.40;;
50681;SDS011;36779;52.168;20.878;2022-07-01T02:49:50;12.90;;;8.70;;
50681;SDS011;36779;52.168;20.878;2022-07-01T02:52:45;13.60;;;9.30;;
50681;SDS011;36779;52.168;20.878;2022-07-01T02:55:34;14.00;;;9.00;;
50681;SDS011;36779;52.168;20.878;2022-07-01T02:58:29;13.80;;;8.10;;
50681;SDS011;36779;52.168;20.878;2022-07-01T03:01:18;12.00;;;8.70;;
50681;SDS011;36779;52.168;20.878;2022-07-01T03:04:07;12.70;;;8.90;;
50681;SDS011;36779;52.168;20.878;2022-07-01T03:06:56;21.90;;;9.10;;
50681;SDS011;36779;52.168;20.878;2022-07-01T03:09:48;14.20;;;9.30;;
50681;SDS011;36779;52.168;20.878;2022-07-01T03:12:37;13.20;;;9.00;;
50681;SDS011;36779;52.168;20.878;2022-07-01T03:15:29;13.40;;;8.90;;
50681;SDS011;36779;52.168;20.878;2022-07-01T03:18:18;12.70;;;8.60;;
50681;SDS011;36779;52.168;20.878;2022-07-01T03:21:08;14.70;;;8.70;;
50681;SDS011;36779;52.168;20.878;2022-07-01T03:23:58;15.90;;;9.50;;
50681;SDS011;36779;52.168;20.878;2022-07-01T03:26:47;12.30;;;9.60;;
50681;SDS011;36779;52.168;20.878;2022-07-01T03:29:37;13.00;;;9.00;;
50681;SDS011;36779;52.168;20.878;2022-07-01T03:32:17;11.70;;;8.70;;
50681;SDS011;36779;52.168;20.878;2022-07-01T03:35:08;15.10;;;9.50;;
50681;SDS011;36779;52.168;20.878;2022-07-01T03:38:15;12.40;;;9.30;;
50681;SDS011;36779;52.168;20.878;2022-07-01T03:41:13;13.00;;;9.40;;
50681;SDS011;36779;52.168;20.878;2022-07-01T03:44:02;16.30;;;9.60;;
50681;SDS011;36779;52.168;20.878;2022-07-01T03:46:48;14.20;;;9.20;;
50681;SDS011;36779;52.168;20.878;2022-07-01T03:49:38;12.60;;;8.90;;
50681;SDS011;36779;52.168;20.878;2022-07-01T03:52:20;14.70;;;9.60;;
50681;SDS011;36779;52.168;20.878;2022-07-01T03:55:00;16.40;;;10.20;;
50681;SDS011;36779;52.168;20.878;2022-07-01T03:57:49;15.00;;;10.30;;
50681;SDS011;36779;52.168;20.878;2022-07-01T04:00:39;14.50;;;9.80;;
50681;SDS011;36779;52.168;20.878;2022-07-01T04:03:28;12.50;;;9.10;;
50681;SDS011;36779;52.168;20.878;2022-07-01T04:06:17;16.10;;;9.50;;
50681;SDS011;36779;52.168;20.878;2022-07-01T04:09:08;12.50;;;9.50;;
50681;SDS011;36779;52.168;20.878;2022-07-01T04:11:58;15.60;;;10.00;;
50681;SDS011;36779;52.168;20.878;2022-07-01T04:14:48;11.10;;;9.60;;
50681;SDS011;36779;52.168;20.878;2022-07-01T04:17:42;19.50;;;10.40;;
50681;SDS011;36779;52.168;20.878;2022-07-01T04:20:31;16.20;;;10.80;;
50681;SDS011;36779;52.168;20.878;2022-07-01T04:23:21;13.30;;;10.70;;
50681;SDS011;36779;52.168;20.878;2022-07-01T04:26:10;15.70;;;11.00;;
50681;SDS011;36779;52.168;20.878;2022-07-01T04:29:19;15.30;;;11.80;;
50681;SDS011;36779;52.168;20.878;2022-07-01T04:32:10;15.40;;;11.30;;
50681;SDS011;36779;52.168;20.878;2022-07-01T04:34:59;13.40;;;11.90;;
50681;SDS011;36779;52.168;20.878;2022-07-01T04:37:48;13.00;;;11.70;;
50681;SDS011;36779;52.168;20.878;2022-07-01T04:40:42;13.00;;;11.30;;
50681;SDS011;36779;52.168;20.878;2022-07-01T04:43:54;15.20;;;11.90;;
50681;SDS011;36779;52.168;20.878;2022-07-01T04:46:44;15.50;;;12.10;;
50681;SDS011;36779;52.168;20.878;2022-07-01T04:49:34;17.10;;;11.20;;
50681;SDS011;36779;52.168;20.878;2022-07-01T04:52:25;16.90;;;13.10;;
50681;SDS011;36779;52.168;20.878;2022-07-01T04:55:06;14.60;;;12.70;;
50681;SDS011;36779;52.168;20.878;2022-07-01T04:57:59;16.20;;;12.70;;
50681;SDS011;36779;52.168;20.878;2022-07-01T05:00:52;17.50;;;13.00;;
50681;SDS011;36779;52.168;20.878;2022-07-01T05:03:41;14.00;;;12.40;;
50681;SDS011;36779;52.168;20.878;2022-07-01T05:06:31;18.60;;;13.40;;
50681;SDS011;36779;52.168;20.878;2022-07-01T05:09:24;14.70;;;12.40;;
50681;SDS011;36779;52.168;20.878;2022-07-01T05:12:13;17.70;;;13.60;;
50681;SDS011;36779;52.168;20.878;2022-07-01T05:15:02;17.70;;;13.00;;
50681;SDS011;36779;52.168;20.878;2022-07-01T05:17:52;15.70;;;13.80;;
50681;SDS011;36779;52.168;20.878;2022-07-01T05:20:59;15.50;;;13.80;;
50681;SDS011;36779;52.168;20.878;2022-07-01T05:24:08;16.90;;;13.70;;
50681;SDS011;36779;52.168;20.878;2022-07-01T05:26:58;16.90;;;13.40;;
50681;SDS011;36779;52.168;20.878;2022-07-01T05:29:48;18.00;;;13.90;;
50681;SDS011;36779;52.168;20.878;2022-07-01T05:32:37;16.40;;;13.90;;
50681;SDS011;36779;52.168;20.878;2022-07-01T05:35:26;14.90;;;12.90;;
50681;SDS011;36779;52.168;20.878;2022-07-01T05:38:16;15.80;;;13.80;;
50681;SDS011;36779;52.168;20.878;2022-07-01T05:41:06;15.40;;;13.60;;
50681;SDS011;36779;52.168;20.878;2022-07-01T05:43:58;14.60;;;13.20;;
50681;SDS011;36779;52.168;20.878;2022-07-01T05:46:47;15.30;;;13.70;;
50681;SDS011;36779;52.168;20.878;2022-07-01T05:49:37;19.40;;;13.30;;
50681;SDS011;36779;52.168;20.878;2022-07-01T05:52:29;15.60;;;14.00;;
50681;SDS011;36779;52.168;20.878;2022-07-01T05:55:18;15.00;;;13.30;;
50681;SDS011;36779;52.168;20.878;2022-07-01T05:58:08;14.50;;;12.90;;
50681;SDS011;36779;52.168;20.878;2022-07-01T06:01:02;14.90;;;13.40;;
50681;SDS011;36779;52.168;20.878;2022-07-01T06:03:57;15.80;;;14.20;;
50681;SDS011;36779;52.168;20.878;2022-07-01T06:06:51;16.00;;;13.80;;
50681;SDS011;36779;52.168;20.878;2022-07-01T06:09:40;17.50;;;14.10;;
50681;SDS011;36779;52.168;20.878;2022-07-01T06:12:29;14.70;;;13.30;;
50681;SDS011;36779;52.168;20.878;2022-07-01T06:15:09;17.10;;;14.60;;
50681;SDS011;36779;52.168;20.878;2022-07-01T06:17:59;15.30;;;13.80;;
50681;SDS011;36779;52.168;20.878;2022-07-01T06:20:48;14.20;;;12.50;;
50681;SDS011;36779;52.168;20.878;2022-07-01T06:23:40;16.00;;;13.10;;
50681;SDS011;36779;52.168;20.878;2022-07-01T06:26:30;14.40;;;13.10;;
50681;SDS011;36779;52.168;20.878;2022-07-01T06:29:12;14.20;;;12.90;;
50681;SDS011;36779;52.168;20.878;2022-07-01T06:32:03;14.90;;;12.90;;
50681;SDS011;36779;52.168;20.878;2022-07-01T06:34:54;14.20;;;12.90;;
50681;SDS011;36779;52.168;20.878;2022-07-01T06:37:46;15.10;;;13.50;;
50681;SDS011;36779;52.168;20.878;2022-07-01T06:40:25;15.70;;;14.10;;
50681;SDS011;36779;52.168;20.878;2022-07-01T06:43:07;15.60;;;12.90;;
50681;SDS011;36779;52.168;20.878;2022-07-01T06:45:58;14.70;;;12.80;;
50681;SDS011;36779;52.168;20.878;2022-07-01T06:48:48;14.70;;;13.10;;
50681;SDS011;36779;52.168;20.878;2022-07-01T06:51:37;14.10;;;12.80;;
50681;SDS011;36779;52.168;20.878;2022-07-01T06:54:20;16.00;;;13.30;;
50681;SDS011;36779;52.168;20.878;2022-07-01T06:57:09;16.40;;;13.00;;
50681;SDS011;36779;52.168;20.878;2022-07-01T06:59:59;14.70;;;13.20;;
50681;SDS011;36779;52.168;20.878;2022-07-01T07:02:49;13.60;;;12.40;;
50681;SDS011;36779;52.168;20.878;2022-07-01T07:05:38;14.40;;;12.70;;
50681;SDS011;36779;52.168;20.878;2022-07-01T07:08:27;15.00;;;13.40;;
50681;SDS011;36779;52.168;20.878;2022-07-01T07:11:17;15.10;;;12.80;;
50681;SDS011;36779;52.168;20.878;2022-07-01T07:14:08;14.40;;;13.00;;
50681;SDS011;36779;52.168;20.878;2022-07-01T07:16:50;15.30;;;13.30;;
50681;SDS011;36779;52.168;20.878;2022-07-01T07:19:41;12.90;;;11.60;;
50681;SDS011;36779;52.168;20.878;2022-07-01T07:22:30;14.10;;;12.70;;
50681;SDS011;36779;52.168;20.878;2022-07-01T07:25:19;13.80;;;12.50;;
50681;SDS011;36779;52.168;20.878;2022-07-01T07:28:10;14.80;;;12.60;;
50681;SDS011;36779;52.168;20.878;2022-07-01T07:30:59;13.80;;;11.90;;
50681;SDS011;36779;52.168;20.878;2022-07-01T07:33:51;14.00;;;12.60;;
50681;SDS011;36779;52.168;20.878;2022-07-01T07:36:41;15.60;;;13.30;;
50681;SDS011;36779;52.168;20.878;2022-07-01T07:39:30;14.60;;;12.50;;
50681;SDS011;36779;52.168;20.878;2022-07-01T07:42:20;14.40;;;12.30;;
50681;SDS011;36779;52.168;20.878;2022-07-01T07:45:11;17.40;;;12.50;;
50681;SDS011;36779;52.168;20.878;2022-07-01T07:48:07;14.90;;;12.80;;
50681;SDS011;36779;52.168;20.878;2022-07-01T07:50:57;16.20;;;12.70;;
50681;SDS011;36779;52.168;20.878;2022-07-01T07:53:39;15.10;;;12.90;;
50681;SDS011;36779;52.168;20.878;2022-07-01T07:56:28;14.10;;;12.10;;
50681;SDS011;36779;52.168;20.878;2022-07-01T07:59:17;14.20;;;12.30;;
50681;SDS011;36779;52.168;20.878;2022-07-01T08:02:07;17.20;;;12.20;;
50681;SDS011;36779;52.168;20.878;2022-07-01T08:04:56;13.60;;;12.00;;
50681;SDS011;36779;52.168;20.878;2022-07-01T08:07:46;14.50;;;12.20;;
50681;SDS011;36779;52.168;20.878;2022-07-01T08:10:35;13.20;;;11.60;;
50681;SDS011;36779;52.168;20.878;2022-07-01T08:13:27;13.70;;;11.90;;
50681;SDS011;36779;52.168;20.878;2022-07-01T08:16:16;13.90;;;11.70;;
50681;SDS011;36779;52.168;20.878;2022-07-01T08:19:07;12.50;;;11.30;;
50681;SDS011;36779;52.168;20.878;2022-07-01T08:21:57;13.90;;;12.10;;
50681;SDS011;36779;52.168;20.878;2022-07-01T08:24:46;12.60;;;11.20;;
50681;SDS011;36779;52.168;20.878;2022-07-01T08:27:35;15.90;;;12.10;;
50681;SDS011;36779;52.168;20.878;2022-07-01T08:30:25;14.40;;;11.70;;
50681;SDS011;36779;52.168;20.878;2022-07-01T08:33:14;12.50;;;11.20;;
50681;SDS011;36779;52.168;20.878;2022-07-01T08:36:03;14.80;;;11.50;;
50681;SDS011;36779;52.168;20.878;2022-07-01T08:50:48;15.00;;;10.60;;
50681;SDS011;36779;52.168;20.878;2022-07-01T08:53:38;12.60;;;9.80;;
50681;SDS011;36779;52.168;20.878;2022-07-01T08:56:27;14.60;;;9.60;;
50681;SDS011;36779;52.168;20.878;2022-07-01T08:59:33;10.50;;;8.90;;
50681;SDS011;36779;52.168;20.878;2022-07-01T09:02:22;9.50;;;8.30;;
50681;SDS011;36779;52.168;20.878;2022-07-01T09:05:11;13.90;;;9.50;;
50681;SDS011;36779;52.168;20.878;2022-07-01T09:08:01;9.60;;;8.70;;
50681;SDS011;36779;52.168;20.878;2022-07-01T09:10:52;10.10;;;7.90;;
50681;SDS011;36779;52.168;20.878;2022-07-01T09:13:41;9.00;;;7.50;;
50681;SDS011;36779;52.168;20.878;2022-07-01T09:16:39;10.20;;;8.90;;
50681;SDS011;36779;52.168;20.878;2022-07-01T09:19:31;9.80;;;8.20;;
50681;SDS011;36779;52.168;20.878;2022-07-01T09:22:22;9.90;;;8.60;;
50681;SDS011;36779;52.168;20.878;2022-07-01T09:25:13;9.00;;;8.10;;
50681;SDS011;36779;52.168;20.878;2022-07-01T09:28:03;10.80;;;8.60;;
50681;SDS011;36779;52.168;20.878;2022-07-01T09:30:59;8.60;;;7.70;;
50681;SDS011;36779;52.168;20.878;2022-07-01T09:33:47;8.90;;;8.00;;
50681;SDS011;36779;52.168;20.878;2022-07-01T09:36:51;8.50;;;7.80;;
50681;SDS011;36779;52.168;20.878;2022-07-01T09:39:44;8.60;;;7.80;;
50681;SDS011;36779;52.168;20.878;2022-07-01T09:42:37;10.00;;;7.90;;
50681;SDS011;36779;52.168;20.878;2022-07-01T09:45:34;9.10;;;8.00;;
50681;SDS011;36779;52.168;20.878;2022-07-01T09:48:26;8.90;;;8.10;;
50681;SDS011;36779;52.168;20.878;2022-07-01T09:51:30;8.40;;;7.00;;
50681;SDS011;36779;52.168;20.878;2022-07-01T09:54:19;8.70;;;7.90;;
50681;SDS011;36779;52.168;20.878;2022-07-01T09:57:08;9.40;;;7.70;;
50681;SDS011;36779;52.168;20.878;2022-07-01T09:59:58;8.20;;;7.40;;
50681;SDS011;36779;52.168;20.878;2022-07-01T10:02:47;8.00;;;7.30;;
50681;SDS011;36779;52.168;20.878;2022-07-01T10:05:38;9.10;;;7.30;;
50681;SDS011;36779;52.168;20.878;2022-07-01T10:08:36;7.70;;;6.80;;
50681;SDS011;36779;52.168;20.878;2022-07-01T10:11:47;8.90;;;7.40;;
50681;SDS011;36779;52.168;20.878;2022-07-01T10:14:51;7.80;;;7.10;;
50681;SDS011;36779;52.168;20.878;2022-07-01T10:17:42;8.30;;;7.60;;
50681;SDS011;36779;52.168;20.878;2022-07-01T10:20:26;8.90;;;7.00;;
50681;SDS011;36779;52.168;20.878;2022-07-01T10:23:19;8.10;;;7.30;;
50681;SDS011;36779;52.168;20.878;2022-07-01T10:26:09;8.10;;;7.40;;
50681;SDS011;36779;52.168;20.878;2022-07-01T10:28:59;8.30;;;7.50;;
50681;SDS011;36779;52.168;20.878;2022-07-01T10:31:49;9.80;;;7.70;;
50681;SDS011;36779;52.168;20.878;2022-07-01T10:34:39;9.80;;;7.30;;
50681;SDS011;36779;52.168;20.878;2022-07-01T10:37:30;8.80;;;7.50;;
50681;SDS011;36779;52.168;20.878;2022-07-01T10:40:19;7.90;;;7.20;;
50681;SDS011;36779;52.168;20.878;2022-07-01T10:43:32;8.40;;;7.20;;
50681;SDS011;36779;52.168;20.878;2022-07-01T10:46:37;9.30;;;7.60;;
50681;SDS011;36779;52.168;20.878;2022-07-01T10:55:49;9.40;;;7.30;;
50681;SDS011;36779;52.168;20.878;2022-07-01T10:58:44;8.90;;;6.80;;
50681;SDS011;36779;52.168;20.878;2022-07-01T11:01:34;6.20;;;5.60;;
50681;SDS011;36779;52.168;20.878;2022-07-01T11:04:25;7.00;;;6.30;;
50681;SDS011;36779;52.168;20.878;2022-07-01T11:07:26;6.80;;;6.10;;
50681;SDS011;36779;52.168;20.878;2022-07-01T11:10:16;8.70;;;7.10;;
50681;SDS011;36779;52.168;20.878;2022-07-01T11:13:07;8.60;;;7.00;;
50681;SDS011;36779;52.168;20.878;2022-07-01T11:16:00;8.70;;;6.40;;
50681;SDS011;36779;52.168;20.878;2022-07-01T11:18:50;9.60;;;6.40;;
50681;SDS011;36779;52.168;20.878;2022-07-01T11:21:48;7.90;;;6.00;;
50681;SDS011;36779;52.168;20.878;2022-07-01T11:24:38;9.70;;;6.20;;
50681;SDS011;36779;52.168;20.878;2022-07-01T11:27:27;7.50;;;6.70;;
50681;SDS011;36779;52.168;20.878;2022-07-01T11:30:18;7.10;;;6.60;;
50681;SDS011;36779;52.168;20.878;2022-07-01T11:33:11;7.70;;;7.00;;
50681;SDS011;36779;52.168;20.878;2022-07-01T11:36:00;7.60;;;6.80;;
50681;SDS011;36779;52.168;20.878;2022-07-01T11:39:08;11.50;;;7.00;;
50681;SDS011;36779;52.168;20.878;2022-07-01T11:42:12;10.20;;;6.70;;
50681;SDS011;36779;52.168;20.878;2022-07-01T11:45:01;7.70;;;7.10;;
50681;SDS011;36779;52.168;20.878;2022-07-01T11:47:52;7.40;;;6.70;;
50681;SDS011;36779;52.168;20.878;2022-07-01T11:50:41;8.80;;;7.00;;
50681;SDS011;36779;52.168;20.878;2022-07-01T11:53:30;7.60;;;6.90;;
50681;SDS011;36779;52.168;20.878;2022-07-01T11:56:28;8.00;;;7.20;;
50681;SDS011;36779;52.168;20.878;2022-07-01T11:59:18;8.90;;;6.10;;
50681;SDS011;36779;52.168;20.878;2022-07-01T12:02:09;9.60;;;5.70;;
50681;SDS011;36779;52.168;20.878;2022-07-01T12:05:00;7.20;;;5.00;;
50681;SDS011;36779;52.168;20.878;2022-07-01T12:07:40;8.70;;;5.60;;
50681;SDS011;36779;52.168;20.878;2022-07-01T12:10:32;12.10;;;6.80;;
50681;SDS011;36779;52.168;20.878;2022-07-01T12:13:23;10.10;;;7.10;;
50681;SDS011;36779;52.168;20.878;2022-07-01T12:16:13;7.20;;;6.40;;
50681;SDS011;36779;52.168;20.878;2022-07-01T12:18:55;10.60;;;7.00;;
50681;SDS011;36779;52.168;20.878;2022-07-01T12:21:48;7.20;;;5.70;;
50681;SDS011;36779;52.168;20.878;2022-07-01T12:24:38;9.00;;;5.30;;
50681;SDS011;36779;52.168;20.878;2022-07-01T12:27:28;8.90;;;5.50;;
50681;SDS011;36779;52.168;20.878;2022-07-01T12:30:24;9.50;;;5.70;;
50681;SDS011;36779;52.168;20.878;2022-07-01T12:33:20;7.40;;;5.80;;
50681;SDS011;36779;52.168;20.878;2022-07-01T12:36:09;6.70;;;5.90;;
50681;SDS011;36779;52.168;20.878;2022-07-01T12:39:00;8.00;;;6.70;;
50681;SDS011;36779;52.168;20.878;2022-07-01T12:41:53;6.90;;;6.20;;
50681;SDS011;36779;52.168;20.878;2022-07-01T12:44:44;10.10;;;5.60;;
50681;SDS011;36779;52.168;20.878;2022-07-01T12:47:35;7.40;;;5.50;;
50681;SDS011;36779;52.168;20.878;2022-07-01T12:50:25;8.90;;;5.80;;
50681;SDS011;36779;52.168;20.878;2022-07-01T12:53:18;7.40;;;5.30;;
50681;SDS011;36779;52.168;20.878;2022-07-01T12:56:08;8.60;;;6.10;;
50681;SDS011;36779;52.168;20.878;2022-07-01T12:59:13;6.60;;;5.80;;
50681;SDS011;36779;52.168;20.878;2022-07-01T13:01:56;8.60;;;6.10;;
50681;SDS011;36779;52.168;20.878;2022-07-01T13:04:49;9.80;;;6.20;;
50681;SDS011;36779;52.168;20.878;2022-07-01T13:07:38;10.10;;;6.60;;
50681;SDS011;36779;52.168;20.878;2022-07-01T13:10:33;7.00;;;6.30;;
50681;SDS011;36779;52.168;20.878;2022-07-01T13:13:23;9.20;;;6.80;;
50681;SDS011;36779;52.168;20.878;2022-07-01T13:16:14;7.30;;;6.00;;
50681;SDS011;36779;52.168;20.878;2022-07-01T13:19:03;9.60;;;6.40;;
50681;SDS011;36779;52.168;20.878;2022-07-01T13:21:53;9.20;;;6.00;;
50681;SDS011;36779;52.168;20.878;2022-07-01T13:24:42;7.50;;;6.20;;
50681;SDS011;36779;52.168;20.878;2022-07-01T13:27:31;7.60;;;6.40;;
50681;SDS011;36779;52.168;20.878;2022-07-01T13:30:20;7.40;;;6.30;;
50681;SDS011;36779;52.168;20.878;2022-07-01T13:33:09;7.70;;;6.00;;
50681;SDS011;36779;52.168;20.878;2022-07-01T13:35:58;8.60;;;6.10;;
50681;SDS011;36779;52.168;20.878;2022-07-01T13:38:47;8.30;;;6.00;;
50681;SDS011;36779;52.168;20.878;2022-07-01T13:41:36;8.70;;;6.40;;
50681;SDS011;36779;52.168;20.878;2022-07-01T13:44:26;9.00;;;5.90;;
50681;SDS011;36779;52.168;20.878;2022-07-01T13:47:16;7.40;;;6.10;;
50681;SDS011;36779;52.168;20.878;2022-07-01T13:50:07;8.20;;;6.10;;
50681;SDS011;36779;52.168;20.878;2022-07-01T13:52:57;8.10;;;6.20;;
50681;SDS011;36779;52.168;20.878;2022-07-01T13:55:46;6.50;;;5.80;;
50681;SDS011;36779;52.168;20.878;2022-07-01T13:58:35;10.10;;;6.00;;
50681;SDS011;36779;52.168;20.878;2022-07-01T14:01:24;7.30;;;6.10;;
50681;SDS011;36779;52.168;20.878;2022-07-01T14:04:13;7.80;;;6.30;;
50681;SDS011;36779;52.168;20.878;2022-07-01T14:07:03;6.60;;;5.40;;
50681;SDS011;36779;52.168;20.878;2022-07-01T14:09:52;8.00;;;5.50;;
50681;SDS011;36779;52.168;20.878;2022-07-01T14:12:42;6.90;;;5.60;;
50681;SDS011;36779;52.168;20.878;2022-07-01T14:15:31;8.30;;;6.10;;
50681;SDS011;36779;52.168;20.878;2022-07-01T14:18:24;6.00;;;5.40;;
50681;SDS011;36779;52.168;20.878;2022-07-01T14:21:14;9.50;;;5.80;;
50681;SDS011;36779;52.168;20.878;2022-07-01T14:24:03;10.20;;;5.40;;
50681;SDS011;36779;52.168;20.878;2022-07-01T14:26:54;7.50;;;5.80;;
50681;SDS011;36779;52.168;20.878;2022-07-01T14:29:45;8.60;;;5.60;;
50681;SDS011;36779;52.168;20.878;2022-07-01T14:32:44;6.40;;;5.80;;
50681;SDS011;36779;52.168;20.878;2022-07-01T14:35:33;8.70;;;5.60;;
50681;SDS011;36779;52.168;20.878;2022-07-01T14:38:23;6.00;;;5.20;;
50681;SDS011;36779;52.168;20.878;2022-07-01T14:41:13;6.20;;;5.20;;
50681;SDS011;36779;52.168;20.878;2022-07-01T14:44:03;6.20;;;5.60;;
50681;SDS011;36779;52.168;20.878;2022-07-01T14:46:52;8.90;;;6.10;;
50681;SDS011;36779;52.168;20.878;2022-07-01T14:49:41;6.50;;;5.10;;
50681;SDS011;36779;52.168;20.878;2022-07-01T14:52:34;6.10;;;5.30;;
50681;SDS011;36779;52.168;20.878;2022-07-01T14:55:23;7.80;;;5.70;;
50681;SDS011;36779;52.168;20.878;2022-07-01T14:58:13;9.20;;;6.30;;
50681;SDS011;36779;52.168;20.878;2022-07-01T15:01:02;8.70;;;6.20;;
50681;SDS011;36779;52.168;20.878;2022-07-01T15:03:51;7.30;;;5.70;;
50681;SDS011;36779;52.168;20.878;2022-07-01T15:06:40;7.50;;;5.90;;
50681;SDS011;36779;52.168;20.878;2022-07-01T15:09:32;6.50;;;5.60;;
50681;SDS011;36779;52.168;20.878;2022-07-01T15:12:19;6.70;;;5.90;;
50681;SDS011;36779;52.168;20.878;2022-07-01T15:15:16;7.70;;;6.20;;
50681;SDS011;36779;52.168;20.878;2022-07-01T15:18:06;7.00;;;6.20;;
50681;SDS011;36779;52.168;20.878;2022-07-01T15:20:57;6.70;;;6.10;;
50681;SDS011;36779;52.168;20.878;2022-07-01T15:23:52;8.50;;;6.20;;
50681;SDS011;36779;52.168;20.878;2022-07-01T15:26:45;6.80;;;6.20;;
50681;SDS011;36779;52.168;20.878;2022-07-01T15:29:44;6.90;;;6.40;;
50681;SDS011;36779;52.168;20.878;2022-07-01T15:32:52;9.70;;;6.40;;
50681;SDS011;36779;52.168;20.878;2022-07-01T15:35:59;10.00;;;6.60;;
50681;SDS011;36779;52.168;20.878;2022-07-01T15:38:47;7.10;;;6.40;;
50681;SDS011;36779;52.168;20.878;2022-07-01T15:41:40;7.00;;;6.10;;
50681;SDS011;36779;52.168;20.878;2022-07-01T15:47:31;9.70;;;6.40;;
50681;SDS011;36779;52.168;20.878;2022-07-01T15:50:43;8.20;;;6.50;;
50681;SDS011;36779;52.168;20.878;2022-07-01T15:56:40;8.50;;;6.10;;
50681;SDS011;36779;52.168;20.878;2022-07-01T16:02:54;8.30;;;6.50;;
50681;SDS011;36779;52.168;20.878;2022-07-01T16:05:51;8.30;;;6.50;;
50681;SDS011;36779;52.168;20.878;2022-07-01T16:08:50;9.20;;;5.90;;
50681;SDS011;36779;52.168;20.878;2022-07-01T16:11:47;7.00;;;6.30;;
50681;SDS011;36779;52.168;20.878;2022-07-01T16:14:50;6.70;;;6.00;;
50681;SDS011;36779;52.168;20.878;2022-07-01T16:17:47;6.40;;;5.80;;
50681;SDS011;36779;52.168;20.878;2022-07-01T16:20:44;6.50;;;5.90;;
50681;SDS011;36779;52.168;20.878;2022-07-01T16:23:42;8.00;;;5.80;;
50681;SDS011;36779;52.168;20.878;2022-07-01T16:26:46;10.50;;;6.40;;
50681;SDS011;36779;52.168;20.878;2022-07-01T16:29:48;6.80;;;6.10;;
50681;SDS011;36779;52.168;20.878;2022-07-01T16:33:09;6.20;;;5.50;;
50681;SDS011;36779;52.168;20.878;2022-07-01T16:36:08;7.70;;;5.90;;
50681;SDS011;36779;52.168;20.878;2022-07-01T16:39:11;5.80;;;5.30;;
50681;SDS011;36779;52.168;20.878;2022-07-01T16:41:56;6.40;;;5.80;;
50681;SDS011;36779;52.168;20.878;2022-07-01T16:45:04;6.40;;;5.80;;
50681;SDS011;36779;52.168;20.878;2022-07-01T16:48:31;7.20;;;5.50;;
50681;SDS011;36779;52.168;20.878;2022-07-01T16:51:36;7.50;;;5.70;;
50681;SDS011;36779;52.168;20.878;2022-07-01T16:54:44;6.00;;;5.40;;
50681;SDS011;36779;52.168;20.878;2022-07-01T16:57:42;5.80;;;4.80;;
50681;SDS011;36779;52.168;20.878;2022-07-01T17:00:37;7.80;;;5.60;;
50681;SDS011;36779;52.168;20.878;2022-07-01T17:03:27;6.10;;;5.60;;
50681;SDS011;36779;52.168;20.878;2022-07-01T17:06:19;8.70;;;5.40;;
50681;SDS011;36779;52.168;20.878;2022-07-01T17:09:08;7.50;;;5.70;;
50681;SDS011;36779;52.168;20.878;2022-07-01T17:11:58;5.80;;;5.30;;
50681;SDS011;36779;52.168;20.878;2022-07-01T17:14:49;5.70;;;5.10;;